Beaver County Airport Beaver Falls US
ICAO: KBVI
IATA: BFP
Category: Medium
Scheduled Services: No

Elevation: 1253 ft
TransAlt. 18000 ft.

Airport Communications:
PITTSBURGH APP/DEP:124.75
ATIS:118.35
PITTSBURGH CLNC DEL:124.85
CTAF:120.3
GND:121.8
ALTOONA RDO:115.8
TWR:120.3

KBVI Zoom In..

If you have problems with the map follow the link
https://www.worldairports.se/pages/airport.php?
ICAO=KBVI

Runways:

(A) RW 10 length 4501 ft width 100 ft
LOC 109.30 / hdg 101

(B) RW 28 length 4501 ft width 100 ft
LOC 109.30 / hdg 281

Location; KBVI
Day. 14 / Time. 11.47 Zulu
* Altimeter: 30.43
* Temperature: -03° c. -26.6°f.
* Wind from: 290° Speed 04 kn.
Dewpoint: -08° c.
Visibility: 10 Statute Miles.
Clouds: Overcast 2800 ft.

KBVI 141147Z 29004KT 10SM OVC028 M03/M08 A3043


Wind From 290°
Speed 04 kn.

 
 
jpsmedia.com for Web Design worldairports.se 2018   terms of use